sensor_id;sensor_type;location;lat;lon;timestamp;P1;durP1;ratioP1;P2;durP2;ratioP2
65535;SDS011;52145;49.342;9.116;2022-12-17T10:18:16;40.97;;;20.02;;
65535;SDS011;52145;49.342;9.116;2022-12-17T10:21:02;43.60;;;21.92;;
65535;SDS011;52145;49.342;9.116;2022-12-17T10:24:03;40.60;;;21.05;;
65535;SDS011;52145;49.342;9.116;2022-12-17T10:26:49;35.55;;;18.33;;
65535;SDS011;52145;49.342;9.116;2022-12-17T10:29:33;38.50;;;19.40;;
65535;SDS011;52145;49.342;9.116;2022-12-17T10:32:21;38.78;;;18.05;;
65535;SDS011;52145;49.342;9.116;2022-12-17T10:35:07;36.25;;;17.17;;
65535;SDS011;52145;49.342;9.116;2022-12-17T10:38:00;35.60;;;17.92;;
65535;SDS011;52145;49.342;9.116;2022-12-17T10:40:45;42.42;;;22.25;;
65535;SDS011;52145;49.342;9.116;2022-12-17T10:43:33;32.97;;;18.08;;
65535;SDS011;52145;49.342;9.116;2022-12-17T10:46:22;29.90;;;16.08;;
65535;SDS011;52145;49.342;9.116;2022-12-17T10:51:59;31.58;;;18.40;;
65535;SDS011;52145;49.342;9.116;2022-12-17T10:54:53;48.88;;;21.73;;
65535;SDS011;52145;49.342;9.116;2022-12-17T10:57:40;35.87;;;18.47;;
65535;SDS011;52145;49.342;9.116;2022-12-17T11:00:32;39.42;;;19.15;;
65535;SDS011;52145;49.342;9.116;2022-12-17T11:03:29;28.67;;;17.27;;
65535;SDS011;52145;49.342;9.116;2022-12-17T11:06:27;34.75;;;18.88;;
65535;SDS011;52145;49.342;9.116;2022-12-17T11:09:29;29.98;;;15.90;;
65535;SDS011;52145;49.342;9.116;2022-12-17T11:12:41;35.42;;;17.45;;
65535;SDS011;52145;49.342;9.116;2022-12-17T11:15:45;31.10;;;17.15;;
65535;SDS011;52145;49.342;9.116;2022-12-17T11:21:27;29.75;;;15.82;;
65535;SDS011;52145;49.342;9.116;2022-12-17T11:24:17;29.77;;;16.40;;
65535;SDS011;52145;49.342;9.116;2022-12-17T11:27:07;28.88;;;16.23;;
65535;SDS011;52145;49.342;9.116;2022-12-17T11:29:58;27.33;;;16.95;;
65535;SDS011;52145;49.342;9.116;2022-12-17T11:44:52;26.67;;;15.13;;
65535;SDS011;52145;49.342;9.116;2022-12-17T11:50:42;22.10;;;14.52;;
65535;SDS011;52145;49.342;9.116;2022-12-17T11:56:22;23.23;;;14.00;;
65535;SDS011;52145;49.342;9.116;2022-12-17T11:59:23;27.47;;;17.57;;
65535;SDS011;52145;49.342;9.116;2022-12-17T12:12:47;28.35;;;17.42;;
65535;SDS011;52145;49.342;9.116;2022-12-17T12:18:05;28.27;;;17.58;;
65535;SDS011;52145;49.342;9.116;2022-12-17T12:24:08;28.42;;;16.65;;
65535;SDS011;52145;49.342;9.116;2022-12-17T12:36:14;34.08;;;17.45;;
65535;SDS011;52145;49.342;9.116;2022-12-17T12:39:02;23.42;;;15.82;;
65535;SDS011;52145;49.342;9.116;2022-12-17T12:41:54;25.45;;;15.55;;
65535;SDS011;52145;49.342;9.116;2022-12-17T12:44:43;25.67;;;16.40;;
65535;SDS011;52145;49.342;9.116;2022-12-17T12:47:36;27.08;;;16.73;;
65535;SDS011;52145;49.342;9.116;2022-12-17T12:54:00;25.67;;;17.48;;
65535;SDS011;52145;49.342;9.116;2022-12-17T12:56:59;28.67;;;21.52;;
65535;SDS011;52145;49.342;9.116;2022-12-17T13:00:00;26.48;;;17.90;;
65535;SDS011;52145;49.342;9.116;2022-12-17T13:02:44;35.15;;;21.10;;
65535;SDS011;52145;49.342;9.116;2022-12-17T13:05:31;31.92;;;19.67;;
65535;SDS011;52145;49.342;9.116;2022-12-17T13:10:31;34.05;;;20.90;;
65535;SDS011;52145;49.342;9.116;2022-12-17T13:12:59;35.38;;;21.13;;
65535;SDS011;52145;49.342;9.116;2022-12-17T13:15:52;33.35;;;20.75;;
65535;SDS011;52145;49.342;9.116;2022-12-17T13:18:22;35.63;;;20.73;;
65535;SDS011;52145;49.342;9.116;2022-12-17T13:21:01;40.55;;;20.88;;
65535;SDS011;52145;49.342;9.116;2022-12-17T13:23:47;41.97;;;22.73;;
65535;SDS011;52145;49.342;9.116;2022-12-17T13:26:13;39.15;;;21.60;;
65535;SDS011;52145;49.342;9.116;2022-12-17T13:31:30;38.33;;;19.77;;
65535;SDS011;52145;49.342;9.116;2022-12-17T13:37:36;39.15;;;20.63;;
65535;SDS011;52145;49.342;9.116;2022-12-17T13:40:30;35.83;;;19.48;;
65535;SDS011;52145;49.342;9.116;2022-12-17T13:43:12;43.10;;;21.42;;
65535;SDS011;52145;49.342;9.116;2022-12-17T13:45:47;45.13;;;22.67;;
65535;SDS011;52145;49.342;9.116;2022-12-17T13:48:17;53.63;;;27.23;;
65535;SDS011;52145;49.342;9.116;2022-12-17T13:50:53;52.38;;;27.23;;
65535;SDS011;52145;49.342;9.116;2022-12-17T13:53:20;42.97;;;22.83;;
65535;SDS011;52145;49.342;9.116;2022-12-17T13:55:49;42.75;;;22.25;;
65535;SDS011;52145;49.342;9.116;2022-12-17T13:58:29;39.60;;;20.83;;
65535;SDS011;52145;49.342;9.116;2022-12-17T14:01:10;43.58;;;21.80;;
65535;SDS011;52145;49.342;9.116;2022-12-17T14:03:41;45.25;;;23.17;;
65535;SDS011;52145;49.342;9.116;2022-12-17T14:06:08;47.95;;;23.38;;
65535;SDS011;52145;49.342;9.116;2022-12-17T14:08:35;46.15;;;24.13;;
65535;SDS011;52145;49.342;9.116;2022-12-17T14:11:01;44.55;;;21.75;;
